Time;durP1;ratioP1;P1;durP2;ratioP2;P2;SDS_P1;SDS_P2;PMS_P1;PMS_P2;Temp;Humidity;BMP_temperature;BMP_pressure;BME280_temperature;BME280_humidity;BME280_pressure;Samples;Min_cycle;Max_cycle;Signal;HPM_P1;HPM_P2
2023/05/15 00:00:21;;;;;;;8.05;5.68;;;;;;;;;;6302019;28;20052;-58
2023/05/15 00:03:42;;;;;;;8.85;6.30;;;;;;;;;;6304111;28;20048;-60
2023/05/15 00:06:42;;;;;;;9.00;5.50;;;;;;;;;;6303198;28;20043;-58
2023/05/15 00:09:43;;;;;;;7.80;4.60;;;;;;;;;;6296741;28;20423;-60
2023/05/15 00:12:44;;;;;;;7.32;4.82;;;;;;;;;;6301130;28;20403;-56
2023/05/15 00:15:44;;;;;;;7.90;4.85;;;;;;;;;;6298718;28;22852;-56
2023/05/15 00:18:45;;;;;;;10.95;4.65;;;;;;;;;;6294643;28;20056;-55
2023/05/15 00:21:46;;;;;;;7.97;4.90;;;;;;;;;;6300926;28;20050;-57
2023/05/15 00:24:46;;;;;;;8.93;4.88;;;;;;;;;;6306280;28;20063;-60
2023/05/15 00:27:47;;;;;;;10.23;5.32;;;;;;;;;;6295173;28;20055;-59
2023/05/15 00:30:47;;;;;;;6.45;5.10;;;;;;;;;;6299817;28;20101;-57
2023/05/15 00:33:48;;;;;;;9.82;5.55;;;;;;;;;;6299034;28;20044;-57
2023/05/15 00:36:49;;;;;;;7.00;5.07;;;;;;;;;;6297605;28;20060;-60
2023/05/15 00:39:50;;;;;;;7.15;4.70;;;;;;;;;;6299028;28;20040;-58
2023/05/15 00:42:51;;;;;;;8.30;4.78;;;;;;;;;;6299008;28;20052;-60
2023/05/15 00:45:52;;;;;;;8.18;5.40;;;;;;;;;;6297500;28;20048;-57
2023/05/15 00:48:56;;;;;;;7.10;4.93;;;;;;;;;;6293199;28;20054;-60
2023/05/15 00:52:00;;;;;;;7.85;4.63;;;;;;;;;;6298073;28;20044;-55
2023/05/15 00:55:01;;;;;;;7.85;5.13;;;;;;;;;;6297905;28;22409;-59
2023/05/15 00:58:02;;;;;;;8.27;5.20;;;;;;;;;;6297982;28;20055;-57
2023/05/15 01:01:03;;;;;;;8.98;5.20;;;;;;;;;;6297270;28;20045;-60
2023/05/15 01:04:04;;;;;;;8.48;5.25;;;;;;;;;;6296188;28;20036;-57
2023/05/15 01:07:04;;;;;;;9.10;5.53;;;;;;;;;;6296003;28;20044;-61
2023/05/15 01:10:07;;;;;;;8.25;5.20;;;;;;;;;;6297267;28;20511;-60
2023/05/15 01:13:08;;;;;;;10.68;5.85;;;;;;;;;;6297617;28;20045;-59
2023/05/15 01:16:09;;;;;;;;;;;;;;;;;;6300837;28;20055;-60
2023/05/15 01:19:10;;;;;;;8.68;5.68;;;;;;;;;;6295867;28;20006;-61
2023/05/15 01:22:37;;;;;;;9.10;5.72;;;;;;;;;;6295279;28;20555;-60
2023/05/15 01:26:10;;;;;;;8.25;5.50;;;;;;;;;;6297304;28;20049;-60
2023/05/15 01:29:10;;;;;;;9.00;5.70;;;;;;;;;;6295870;28;20475;-61
2023/05/15 01:32:17;;;;;;;8.48;5.93;;;;;;;;;;6292413;28;20093;-61
2023/05/15 01:35:34;;;;;;;8.25;5.53;;;;;;;;;;6296330;28;20635;-61
2023/05/15 01:38:49;;;;;;;8.70;6.22;;;;;;;;;;6299160;28;20843;-59
2023/05/15 01:41:59;;;;;;;10.10;6.57;;;;;;;;;;6294071;28;20044;-58
2023/05/15 01:45:04;;;;;;;18.65;6.70;;;;;;;;;;6290403;28;20504;-61
2023/05/15 01:48:06;;;;;;;10.63;6.90;;;;;;;;;;6293891;28;20048;-59
2023/05/15 01:51:08;;;;;;;;;;;;;;;;;;6293434;28;20052;-61
2023/05/15 01:54:12;;;;;;;9.55;6.75;;;;;;;;;;6293368;28;19926;-61
2023/05/15 01:57:13;;;;;;;10.88;7.00;;;;;;;;;;6293639;28;20044;-58
2023/05/15 02:00:15;;;;;;;9.82;7.05;;;;;;;;;;6300599;28;20055;-61
2023/05/15 02:03:17;;;;;;;9.68;6.45;;;;;;;;;;6294008;28;20131;-61
2023/05/15 02:06:19;;;;;;;11.02;6.78;;;;;;;;;;6295480;28;20491;-61
2023/05/15 02:09:21;;;;;;;9.60;6.47;;;;;;;;;;6295475;28;20109;-61
2023/05/15 02:12:22;;;;;;;11.50;7.03;;;;;;;;;;6297782;28;20383;-60
2023/05/15 02:15:23;;;;;;;11.32;7.03;;;;;;;;;;6300106;28;20052;-60
2023/05/15 02:18:24;;;;;;;11.88;7.13;;;;;;;;;;6295917;28;20047;-59
2023/05/15 02:21:25;;;;;;;13.07;7.50;;;;;;;;;;6301702;28;20059;-56
2023/05/15 02:24:26;;;;;;;10.52;7.20;;;;;;;;;;6296599;28;20048;-61
2023/05/15 02:27:31;;;;;;;12.60;8.50;;;;;;;;;;6300798;28;20113;-58
2023/05/15 02:30:42;;;;;;;10.75;7.80;;;;;;;;;;6301478;28;20054;-60
2023/05/15 02:34:05;;;;;;;12.43;7.72;;;;;;;;;;6299914;28;20478;-61
2023/05/15 02:37:12;;;;;;;11.75;7.50;;;;;;;;;;6298136;28;20446;-60
2023/05/15 02:40:14;;;;;;;14.38;7.85;;;;;;;;;;6300348;28;20087;-59
2023/05/15 02:43:16;;;;;;;;;;;;;;;;;;6296338;28;20066;-61
2023/05/15 02:46:19;;;;;;;10.70;7.93;;;;;;;;;;6311582;28;19920;-59
2023/05/15 02:49:21;;;;;;;11.27;7.80;;;;;;;;;;6309628;28;20065;-58
2023/05/15 02:52:24;;;;;;;13.85;8.00;;;;;;;;;;6314962;28;20142;-60
2023/05/15 02:55:25;;;;;;;12.60;8.18;;;;;;;;;;6310773;28;20050;-59
2023/05/15 02:58:25;;;;;;;11.27;7.85;;;;;;;;;;6309392;28;20048;-60
2023/05/15 03:01:26;;;;;;;10.65;7.38;;;;;;;;;;6311710;28;20163;-60
2023/05/15 03:04:26;;;;;;;11.07;7.70;;;;;;;;;;6316303;28;20047;-60
2023/05/15 03:07:27;;;;;;;14.45;7.75;;;;;;;;;;6303899;28;20080;-62
2023/05/15 03:10:28;;;;;;;11.98;8.38;;;;;;;;;;6307431;28;20060;-55
2023/05/15 03:13:28;;;;;;;13.88;8.43;;;;;;;;;;6310113;28;20604;-60
2023/05/15 03:16:29;;;;;;;12.95;8.70;;;;;;;;;;6306938;28;20056;-57
2023/05/15 03:19:30;;;;;;;13.20;8.02;;;;;;;;;;6305806;28;20114;-61
2023/05/15 03:22:30;;;;;;;12.10;8.30;;;;;;;;;;6313789;28;20145;-55
2023/05/15 03:25:31;;;;;;;13.40;9.38;;;;;;;;;;6314634;28;20398;-58
2023/05/15 03:28:31;;;;;;;15.02;10.65;;;;;;;;;;6317036;28;20494;-58
2023/05/15 03:31:32;;;;;;;13.88;10.05;;;;;;;;;;6301475;28;20491;-58
2023/05/15 03:34:32;;;;;;;14.13;8.55;;;;;;;;;;6299862;28;20047;-60
2023/05/15 03:37:34;;;;;;;14.52;10.10;;;;;;;;;;6296341;28;20055;-61
2023/05/15 03:40:37;;;;;;;12.05;8.73;;;;;;;;;;6307281;28;20057;-61
2023/05/15 03:43:38;;;;;;;11.98;8.40;;;;;;;;;;6295180;28;20048;-59
2023/05/15 03:46:38;;;;;;;13.20;8.77;;;;;;;;;;6295958;28;20044;-59
2023/05/15 03:49:40;;;;;;;13.90;8.18;;;;;;;;;;6294514;28;20048;-60
2023/05/15 03:52:41;;;;;;;11.60;7.93;;;;;;;;;;6294876;28;20487;-59
2023/05/15 03:55:42;;;;;;;11.00;8.10;;;;;;;;;;6296558;28;20047;-60
2023/05/15 03:58:42;;;;;;;12.13;8.07;;;;;;;;;;6296871;28;20048;-60
2023/05/15 04:01:43;;;;;;;12.48;8.18;;;;;;;;;;6294749;28;20052;-57
2023/05/15 04:04:43;;;;;;;12.20;8.18;;;;;;;;;;6298607;28;20412;-57
2023/05/15 04:07:44;;;;;;;14.48;9.40;;;;;;;;;;6299964;28;20325;-62
2023/05/15 04:10:45;;;;;;;14.27;8.63;;;;;;;;;;6312570;28;20537;-58
2023/05/15 04:13:45;;;;;;;14.02;8.98;;;;;;;;;;6309348;28;20047;-58
2023/05/15 04:16:46;;;;;;;12.50;8.45;;;;;;;;;;6295964;28;20102;-60
2023/05/15 04:19:46;;;;;;;14.80;9.52;;;;;;;;;;6295631;28;20048;-58
2023/05/15 04:22:47;;;;;;;13.57;8.30;;;;;;;;;;6298355;28;20047;-59
2023/05/15 04:25:48;;;;;;;14.15;9.43;;;;;;;;;;6293556;28;20041;-61
2023/05/15 04:28:48;;;;;;;15.88;12.27;;;;;;;;;;6295868;28;20079;-58
2023/05/15 04:31:49;;;;;;;18.70;13.35;;;;;;;;;;6293957;28;20079;-58
2023/05/15 04:34:49;;;;;;;13.75;9.20;;;;;;;;;;6295483;28;20399;-57
2023/05/15 04:37:50;;;;;;;16.08;10.02;;;;;;;;;;6291686;28;20040;-56
2023/05/15 04:40:51;;;;;;;14.27;9.35;;;;;;;;;;6299942;28;20044;-54
2023/05/15 04:43:51;;;;;;;16.55;9.98;;;;;;;;;;6298467;28;20050;-60
2023/05/15 04:46:52;;;;;;;15.30;9.43;;;;;;;;;;6296612;28;20043;-61
2023/05/15 04:49:52;;;;;;;15.52;8.88;;;;;;;;;;6296800;28;22597;-61
2023/05/15 04:52:53;;;;;;;15.10;9.10;;;;;;;;;;6299456;28;20044;-60
2023/05/15 04:55:54;;;;;;;14.88;9.38;;;;;;;;;;6294936;28;20037;-61
2023/05/15 04:58:54;;;;;;;11.25;7.43;;;;;;;;;;6294833;28;20052;-61
2023/05/15 05:01:55;;;;;;;12.15;7.75;;;;;;;;;;6298837;28;20106;-60
2023/05/15 05:04:56;;;;;;;11.52;8.27;;;;;;;;;;6294398;28;20040;-58
2023/05/15 05:07:57;;;;;;;11.88;7.85;;;;;;;;;;6293142;28;20145;-60
2023/05/15 05:10:57;;;;;;;13.07;8.75;;;;;;;;;;6292732;28;20036;-60
2023/05/15 05:13:58;;;;;;;13.25;8.85;;;;;;;;;;6294289;28;20045;-60
2023/05/15 05:16:58;;;;;;;13.63;9.45;;;;;;;;;;6299536;28;20040;-61
2023/05/15 05:19:59;;;;;;;11.13;7.82;;;;;;;;;;6292258;28;20033;-61
2023/05/15 05:22:59;;;;;;;12.68;7.30;;;;;;;;;;6294982;28;20044;-56
2023/05/15 05:26:00;;;;;;;12.65;7.97;;;;;;;;;;6290805;28;20572;-60
2023/05/15 05:29:01;;;;;;;11.50;7.97;;;;;;;;;;6292466;28;20047;-53
2023/05/15 05:32:01;;;;;;;10.98;7.38;;;;;;;;;;6296383;28;20109;-60
2023/05/15 05:35:02;;;;;;;12.52;7.95;;;;;;;;;;6294925;28;20048;-61
2023/05/15 05:38:03;;;;;;;12.17;7.63;;;;;;;;;;6313147;28;20560;-51
2023/05/15 05:41:04;;;;;;;13.60;8.27;;;;;;;;;;6296694;28;20293;-59
2023/05/15 05:44:05;;;;;;;11.25;7.97;;;;;;;;;;6295296;28;20076;-59
2023/05/15 05:47:05;;;;;;;11.77;7.80;;;;;;;;;;6292058;28;20051;-60
2023/05/15 05:50:06;;;;;;;11.77;7.10;;;;;;;;;;6297998;28;20040;-60
2023/05/15 05:53:07;;;;;;;10.25;7.13;;;;;;;;;;6294844;28;20450;-59
2023/05/15 05:56:08;;;;;;;11.25;8.20;;;;;;;;;;6293320;28;20089;-61
2023/05/15 05:59:09;;;;;;;11.20;7.57;;;;;;;;;;6293104;28;20051;-58
2023/05/15 06:02:10;;;;;;;10.95;6.78;;;;;;;;;;6294498;28;20374;-60
2023/05/15 06:05:11;;;;;;;12.38;7.93;;;;;;;;;;6294659;28;20052;-61
2023/05/15 06:08:12;;;;;;;13.13;7.20;;;;;;;;;;6291586;28;20529;-60
2023/05/15 06:11:12;;;;;;;12.27;7.85;;;;;;;;;;6297630;28;20044;-60
2023/05/15 06:14:13;;;;;;;14.95;9.18;;;;;;;;;;6295100;28;20454;-61
2023/05/15 06:17:13;;;;;;;14.45;8.55;;;;;;;;;;6296989;28;20044;-61
2023/05/15 06:20:14;;;;;;;13.25;8.18;;;;;;;;;;6297094;28;20072;-59
2023/05/15 06:23:15;;;;;;;10.93;7.35;;;;;;;;;;6295777;28;20110;-59
2023/05/15 06:26:16;;;;;;;12.18;7.85;;;;;;;;;;6295394;28;20048;-56
2023/05/15 06:29:16;;;;;;;11.48;7.57;;;;;;;;;;6296065;28;20049;-58
2023/05/15 06:32:17;;;;;;;9.40;6.55;;;;;;;;;;6294990;28;20045;-59
2023/05/15 06:35:17;;;;;;;10.82;6.80;;;;;;;;;;6294874;28;20067;-59
2023/05/15 06:38:18;;;;;;;10.85;7.18;;;;;;;;;;6293666;28;20048;-56
2023/05/15 06:41:19;;;;;;;9.20;6.25;;;;;;;;;;6295021;28;20043;-59
2023/05/15 06:44:19;;;;;;;8.20;6.40;;;;;;;;;;6294954;28;20125;-59
2023/05/15 06:47:20;;;;;;;11.30;7.22;;;;;;;;;;6292269;28;20041;-54
2023/05/15 06:50:21;;;;;;;10.45;6.95;;;;;;;;;;6296554;28;20048;-61
2023/05/15 06:53:21;;;;;;;9.20;7.10;;;;;;;;;;6300996;28;20056;-60
2023/05/15 06:56:22;;;;;;;17.95;11.20;;;;;;;;;;6290449;28;20056;-59
2023/05/15 06:59:23;;;;;;;18.25;10.80;;;;;;;;;;6292814;28;20475;-57
2023/05/15 07:02:23;;;;;;;21.60;12.20;;;;;;;;;;6296475;28;20078;-59
2023/05/15 07:05:24;;;;;;;27.33;16.50;;;;;;;;;;6296253;28;20438;-61
2023/05/15 07:08:25;;;;;;;13.00;8.85;;;;;;;;;;6297271;28;20429;-59
2023/05/15 07:11:26;;;;;;;15.00;8.48;;;;;;;;;;6301219;28;20052;-58
2023/05/15 07:14:26;;;;;;;11.35;7.50;;;;;;;;;;6316845;28;20492;-60
2023/05/15 07:17:27;;;;;;;10.35;7.57;;;;;;;;;;6306988;28;20052;-58
2023/05/15 07:20:28;;;;;;;9.68;6.72;;;;;;;;;;6297944;28;20132;-61
2023/05/15 07:23:28;;;;;;;10.10;7.10;;;;;;;;;;6300880;28;20040;-59
2023/05/15 07:26:30;;;;;;;8.82;6.18;;;;;;;;;;6299560;28;20105;-60
2023/05/15 07:29:31;;;;;;;8.57;6.20;;;;;;;;;;6297100;28;20048;-60
2023/05/15 07:32:32;;;;;;;8.23;6.22;;;;;;;;;;6299554;28;20510;-60
2023/05/15 07:35:33;;;;;;;8.68;6.25;;;;;;;;;;6298828;28;20491;-56
2023/05/15 07:38:34;;;;;;;11.60;8.07;;;;;;;;;;6299421;28;20035;-57
2023/05/15 07:41:34;;;;;;;20.60;11.73;;;;;;;;;;6297528;28;20396;-60
2023/05/15 07:44:35;;;;;;;20.92;14.27;;;;;;;;;;6296583;28;20044;-61
2023/05/15 07:47:35;;;;;;;24.13;15.70;;;;;;;;;;6297112;28;20040;-55
2023/05/15 07:50:36;;;;;;;25.83;15.88;;;;;;;;;;6296574;28;20067;-60
2023/05/15 07:53:36;;;;;;;25.70;14.77;;;;;;;;;;6295598;28;20052;-60
2023/05/15 07:56:37;;;;;;;18.40;11.75;;;;;;;;;;6295151;28;20040;-59
2023/05/15 07:59:38;;;;;;;20.55;14.13;;;;;;;;;;6297397;28;20052;-58
2023/05/15 08:02:39;;;;;;;17.80;12.88;;;;;;;;;;6299342;28;20134;-60
2023/05/15 08:05:40;;;;;;;21.33;15.60;;;;;;;;;;6299921;28;20048;-61
2023/05/15 08:08:40;;;;;;;22.52;13.20;;;;;;;;;;6295295;28;20040;-58
2023/05/15 08:11:41;;;;;;;21.00;14.93;;;;;;;;;;6298008;28;20380;-54
2023/05/15 08:14:42;;;;;;;25.77;19.40;;;;;;;;;;6297604;28;20106;-55
2023/05/15 08:17:42;;;;;;;30.05;24.70;;;;;;;;;;6296599;28;20709;-60
2023/05/15 08:20:43;;;;;;;23.83;17.15;;;;;;;;;;6297760;28;20045;-59
2023/05/15 08:23:43;;;;;;;26.40;19.58;;;;;;;;;;6298098;28;20105;-60
2023/05/15 08:26:44;;;;;;;23.67;17.80;;;;;;;;;;6296898;28;20064;-61
2023/05/15 08:29:44;;;;;;;25.67;17.48;;;;;;;;;;6296198;28;20044;-57
2023/05/15 08:32:46;;;;;;;24.58;15.20;;;;;;;;;;6295007;28;20527;-57
2023/05/15 08:35:46;;;;;;;23.05;15.90;;;;;;;;;;6297383;28;20055;-60
2023/05/15 08:38:47;;;;;;;23.63;14.45;;;;;;;;;;6296470;28;20410;-54
2023/05/15 08:42:02;;;;;;;18.30;12.48;;;;;;;;;;6297432;28;20509;-56
2023/05/15 08:45:03;;;;;;;20.27;13.70;;;;;;;;;;6296994;28;20057;-60
2023/05/15 08:48:10;;;;;;;20.80;13.90;;;;;;;;;;6297016;28;20171;-59
2023/05/15 08:51:12;;;;;;;19.20;13.10;;;;;;;;;;6295960;28;20135;-60
2023/05/15 08:54:14;;;;;;;17.92;12.10;;;;;;;;;;6296779;28;20128;-61
2023/05/15 08:57:16;;;;;;;15.65;10.98;;;;;;;;;;6297546;28;20048;-60
2023/05/15 09:00:18;;;;;;;;;;;;;;;;;;6297752;28;20048;-61
2023/05/15 09:03:21;;;;;;;;;;;;;;;;;;6297101;28;19930;-60
2023/05/15 09:06:23;;;;;;;14.82;10.20;;;;;;;;;;6294267;28;20030;-58
2023/05/15 09:09:26;;;;;;;14.55;9.40;;;;;;;;;;6293868;28;20495;-60
2023/05/15 09:12:27;;;;;;;10.48;7.53;;;;;;;;;;6296745;28;20486;-56
2023/05/15 09:15:29;;;;;;;14.60;9.95;;;;;;;;;;6297453;28;20044;-58
2023/05/15 09:18:31;;;;;;;13.35;9.45;;;;;;;;;;6309816;28;20463;-60
2023/05/15 09:21:32;;;;;;;13.20;9.27;;;;;;;;;;6308712;28;20050;-58
2023/05/15 09:24:36;;;;;;;10.65;7.80;;;;;;;;;;6295709;28;20044;-60
2023/05/15 09:27:42;;;;;;;14.88;11.50;;;;;;;;;;6295035;28;20501;-55
2023/05/15 09:30:42;;;;;;;15.45;10.85;;;;;;;;;;6294385;28;20052;-58
2023/05/15 09:33:43;;;;;;;11.30;7.38;;;;;;;;;;6291189;28;20056;-59
2023/05/15 09:36:44;;;;;;;10.27;6.95;;;;;;;;;;6297252;28;21912;-60
2023/05/15 09:39:45;;;;;;;10.68;7.78;;;;;;;;;;6294034;28;20040;-58
2023/05/15 09:42:53;;;;;;;10.27;6.82;;;;;;;;;;6295130;28;20055;-59
2023/05/15 09:45:54;;;;;;;20.00;13.32;;;;;;;;;;6297263;28;20138;-59
2023/05/15 09:48:55;;;;;;;12.77;9.63;;;;;;;;;;6293905;28;20044;-59
2023/05/15 09:52:00;;;;;;;14.35;10.65;;;;;;;;;;6296451;28;20044;-53
2023/05/15 09:55:00;;;;;;;14.60;10.50;;;;;;;;;;6296697;28;20522;-60
2023/05/15 09:58:15;;;;;;;17.05;12.23;;;;;;;;;;6294893;28;20045;-60
2023/05/15 10:01:18;;;;;;;15.57;10.57;;;;;;;;;;6295282;28;20495;-56
2023/05/15 10:04:19;;;;;;;9.70;6.90;;;;;;;;;;6295733;28;20040;-55
2023/05/15 10:07:27;;;;;;;9.65;6.50;;;;;;;;;;6294047;28;20043;-59
2023/05/15 10:10:29;;;;;;;8.32;6.60;;;;;;;;;;6291477;28;20487;-58
2023/05/15 10:13:33;;;;;;;9.93;7.30;;;;;;;;;;6295106;28;20047;-59
2023/05/15 10:16:35;;;;;;;8.77;5.40;;;;;;;;;;6293339;28;20056;-58
2023/05/15 10:19:36;;;;;;;7.32;4.72;;;;;;;;;;6296013;28;20154;-57
2023/05/15 10:22:40;;;;;;;6.28;4.10;;;;;;;;;;6293127;28;20040;-59
2023/05/15 10:25:47;;;;;;;8.68;5.10;;;;;;;;;;6294936;28;20036;-59
2023/05/15 10:28:49;;;;;;;7.03;4.65;;;;;;;;;;6294320;28;20052;-59
2023/05/15 10:31:51;;;;;;;8.45;5.53;;;;;;;;;;6293840;28;20560;-58
2023/05/15 10:34:53;;;;;;;7.18;5.05;;;;;;;;;;6295860;28;20044;-53
2023/05/15 10:37:53;;;;;;;8.43;6.00;;;;;;;;;;6294536;28;20051;-57
2023/05/15 10:40:57;;;;;;;7.47;4.93;;;;;;;;;;6296708;28;20040;-59
2023/05/15 10:43:59;;;;;;;8.57;6.32;;;;;;;;;;6297225;28;20461;-59
2023/05/15 10:47:02;;;;;;;9.40;6.55;;;;;;;;;;6301508;28;20132;-59
2023/05/15 10:50:04;;;;;;;12.00;7.63;;;;;;;;;;6298106;28;20040;-57
2023/05/15 10:53:05;;;;;;;9.63;6.65;;;;;;;;;;6296516;28;20059;-60
2023/05/15 10:56:11;;;;;;;9.43;6.25;;;;;;;;;;6297672;28;20380;-59
2023/05/15 10:59:12;;;;;;;9.40;6.60;;;;;;;;;;6298929;28;20063;-60
2023/05/15 11:02:22;;;;;;;11.73;8.25;;;;;;;;;;6297966;28;20044;-59
2023/05/15 11:05:24;;;;;;;10.63;7.97;;;;;;;;;;6298948;28;20051;-59
2023/05/15 11:08:25;;;;;;;13.18;8.65;;;;;;;;;;6301514;28;20059;-59
2023/05/15 11:11:56;;;;;;;18.42;13.02;;;;;;;;;;6299637;28;20040;-59
2023/05/15 11:14:56;;;;;;;13.93;9.80;;;;;;;;;;6296593;28;20470;-58
2023/05/15 11:18:05;;;;;;;12.95;8.60;;;;;;;;;;6300145;28;20433;-59
2023/05/15 11:21:06;;;;;;;9.68;6.82;;;;;;;;;;6301352;28;20057;-57
2023/05/15 11:24:10;;;;;;;11.27;7.90;;;;;;;;;;6298686;28;20040;-57
2023/05/15 11:27:12;;;;;;;12.63;8.25;;;;;;;;;;6297701;28;20042;-59
2023/05/15 11:30:21;;;;;;;11.35;8.10;;;;;;;;;;6299692;28;20183;-59
2023/05/15 11:33:21;;;;;;;10.23;7.38;;;;;;;;;;6300352;28;20803;-59
2023/05/15 11:36:23;;;;;;;10.90;7.55;;;;;;;;;;6297014;28;20052;-60
2023/05/15 11:39:24;;;;;;;10.68;7.25;;;;;;;;;;6297507;28;20070;-59
2023/05/15 11:42:25;;;;;;;;;;;;;;;;;;6300275;28;20525;-60
2023/05/15 11:45:31;;;;;;;19.25;12.98;;;;;;;;;;6296392;28;19932;-57
2023/05/15 11:48:48;;;;;;;13.60;9.38;;;;;;;;;;6297841;28;20040;-58
2023/05/15 11:51:50;;;;;;;15.30;10.70;;;;;;;;;;6301213;28;20083;-59
2023/05/15 11:54:51;;;;;;;10.30;7.80;;;;;;;;;;6294746;28;20062;-60
2023/05/15 11:57:52;;;;;;;10.18;7.00;;;;;;;;;;6291412;28;20032;-59
2023/05/15 12:00:52;;;;;;;8.80;5.13;;;;;;;;;;6298678;28;20051;-58
2023/05/15 12:03:53;;;;;;;7.45;5.30;;;;;;;;;;6301208;28;20085;-59
2023/05/15 12:06:54;;;;;;;8.25;6.20;;;;;;;;;;6295851;28;20041;-60
2023/05/15 12:09:54;;;;;;;8.45;6.80;;;;;;;;;;6300101;28;20052;-58
2023/05/15 12:12:55;;;;;;;11.30;8.25;;;;;;;;;;6297770;28;20447;-57
2023/05/15 12:15:56;;;;;;;10.30;7.18;;;;;;;;;;6297864;28;20079;-55
2023/05/15 12:18:57;;;;;;;9.65;6.93;;;;;;;;;;6297740;28;20491;-59
2023/05/15 12:21:57;;;;;;;9.05;6.53;;;;;;;;;;6297997;28;20543;-57
2023/05/15 12:24:58;;;;;;;7.47;4.43;;;;;;;;;;6296421;28;20052;-60
2023/05/15 12:28:01;;;;;;;6.13;3.97;;;;;;;;;;6296827;28;20050;-59
2023/05/15 12:31:02;;;;;;;6.40;4.22;;;;;;;;;;6296252;28;20086;-59
2023/05/15 12:34:03;;;;;;;5.43;3.85;;;;;;;;;;6298303;28;20041;-59
2023/05/15 12:37:04;;;;;;;5.55;3.28;;;;;;;;;;6296553;28;20451;-58
2023/05/15 12:40:10;;;;;;;6.30;4.10;;;;;;;;;;6299255;28;20561;-55
2023/05/15 12:43:12;;;;;;;6.70;4.40;;;;;;;;;;6298602;28;20040;-59
2023/05/15 12:46:13;;;;;;;;;;;;;;;;;;6295548;28;20514;-59
2023/05/15 12:49:20;;;;;;;7.28;5.00;;;;;;;;;;6298379;28;19931;-59
2023/05/15 12:52:20;;;;;;;7.10;4.38;;;;;;;;;;6295662;28;21627;-56
2023/05/15 12:55:27;;;;;;;6.13;4.25;;;;;;;;;;6297083;28;20052;-59
2023/05/15 12:58:27;;;;;;;5.75;4.30;;;;;;;;;;6296552;28;20047;-52
2023/05/15 13:01:28;;;;;;;6.60;4.05;;;;;;;;;;6296045;28;20067;-58
2023/05/15 13:04:32;;;;;;;5.80;3.83;;;;;;;;;;6306964;28;20048;-59
2023/05/15 13:07:32;;;;;;;6.55;3.92;;;;;;;;;;6313836;28;20047;-60
2023/05/15 13:10:36;;;;;;;6.95;4.90;;;;;;;;;;6296331;28;20052;-60
2023/05/15 13:13:49;;;;;;;6.18;4.22;;;;;;;;;;6297615;28;20060;-60
2023/05/15 13:16:50;;;;;;;7.38;4.28;;;;;;;;;;6295206;28;20054;-60
2023/05/15 13:19:50;;;;;;;6.63;4.18;;;;;;;;;;6295142;28;20036;-58
2023/05/15 13:22:51;;;;;;;6.35;4.70;;;;;;;;;;6297512;28;20075;-59
2023/05/15 13:25:52;;;;;;;8.52;5.03;;;;;;;;;;6291437;28;20048;-55
2023/05/15 13:28:52;;;;;;;7.33;4.70;;;;;;;;;;6290244;28;20051;-59
2023/05/15 13:31:53;;;;;;;6.57;4.55;;;;;;;;;;6291374;28;20052;-60
2023/05/15 13:34:56;;;;;;;8.52;4.53;;;;;;;;;;6291043;28;20087;-60
2023/05/15 13:37:57;;;;;;;6.10;4.68;;;;;;;;;;6294337;28;20132;-61
2023/05/15 13:40:58;;;;;;;6.93;4.60;;;;;;;;;;6292749;28;20044;-60
2023/05/15 13:43:59;;;;;;;6.32;4.70;;;;;;;;;;6289511;28;20580;-60
2023/05/15 13:47:03;;;;;;;7.00;4.50;;;;;;;;;;6294281;28;20672;-55
2023/05/15 13:50:04;;;;;;;6.05;4.20;;;;;;;;;;6291144;28;20044;-57
2023/05/15 13:53:05;;;;;;;5.75;4.25;;;;;;;;;;6296422;28;20093;-61
2023/05/15 13:56:05;;;;;;;6.72;4.40;;;;;;;;;;6293636;28;20301;-60
2023/05/15 13:59:06;;;;;;;6.07;4.47;;;;;;;;;;6295045;28;20179;-60
2023/05/15 14:02:07;;;;;;;5.85;4.20;;;;;;;;;;6296935;28;20047;-60
2023/05/15 14:05:10;;;;;;;8.50;4.22;;;;;;;;;;6290043;28;20048;-56
2023/05/15 14:08:10;;;;;;;5.82;4.18;;;;;;;;;;6294599;28;20052;-60
2023/05/15 14:11:12;;;;;;;7.20;4.30;;;;;;;;;;6291598;28;20297;-58
2023/05/15 14:14:12;;;;;;;5.78;4.00;;;;;;;;;;6293574;28;20324;-59
2023/05/15 14:17:13;;;;;;;7.17;3.57;;;;;;;;;;6301121;28;20163;-58
2023/05/15 14:20:14;;;;;;;4.97;3.92;;;;;;;;;;6295063;28;20524;-56
2023/05/15 14:23:15;;;;;;;4.07;2.67;;;;;;;;;;6297585;28;20160;-60
2023/05/15 14:26:15;;;;;;;4.75;3.03;;;;;;;;;;6298738;28;20048;-60
2023/05/15 14:29:16;;;;;;;3.77;2.40;;;;;;;;;;6293445;28;20150;-57
2023/05/15 14:32:16;;;;;;;3.97;2.45;;;;;;;;;;6299731;28;20048;-58
2023/05/15 14:35:17;;;;;;;3.65;2.50;;;;;;;;;;6296666;28;20054;-59
2023/05/15 14:38:18;;;;;;;3.60;2.00;;;;;;;;;;6298905;28;20040;-59
2023/05/15 14:41:18;;;;;;;3.83;2.10;;;;;;;;;;6299815;28;20047;-57
2023/05/15 14:44:19;;;;;;;2.97;1.87;;;;;;;;;;6297215;28;20036;-58
2023/05/15 14:47:20;;;;;;;3.30;1.83;;;;;;;;;;6296084;28;20044;-59
2023/05/15 14:50:20;;;;;;;3.40;2.28;;;;;;;;;;6295204;28;20398;-56
2023/05/15 14:53:21;;;;;;;6.17;2.40;;;;;;;;;;6298378;28;20105;-53
2023/05/15 14:56:21;;;;;;;5.73;2.20;;;;;;;;;;6298525;28;20513;-57
2023/05/15 14:59:28;;;;;;;3.57;1.97;;;;;;;;;;6293473;28;20180;-58
2023/05/15 15:02:29;;;;;;;5.15;3.60;;;;;;;;;;6304967;28;20052;-58
2023/05/15 15:05:30;;;;;;;4.07;2.13;;;;;;;;;;6298962;28;20144;-59
2023/05/15 15:08:30;;;;;;;5.60;2.50;;;;;;;;;;6300576;28;20178;-59
2023/05/15 15:11:32;;;;;;;4.75;2.40;;;;;;;;;;6299704;28;20053;-59
2023/05/15 15:14:32;;;;;;;4.03;2.23;;;;;;;;;;6299124;28;20044;-60
2023/05/15 15:17:33;;;;;;;3.58;2.33;;;;;;;;;;6304290;28;20051;-63
2023/05/15 15:20:33;;;;;;;4.47;2.65;;;;;;;;;;6300078;28;20056;-59
2023/05/15 15:23:34;;;;;;;4.60;2.10;;;;;;;;;;6295940;28;20063;-55
2023/05/15 15:26:35;;;;;;;4.53;2.00;;;;;;;;;;6303386;28;20083;-58
2023/05/15 15:29:35;;;;;;;4.43;2.23;;;;;;;;;;6302234;28;20048;-60
2023/05/15 15:32:37;;;;;;;4.72;2.15;;;;;;;;;;6300921;28;20063;-61
2023/05/15 15:35:38;;;;;;;3.25;1.73;;;;;;;;;;6298319;28;20063;-50
2023/05/15 15:38:42;;;;;;;4.90;2.10;;;;;;;;;;6296641;28;20048;-61
2023/05/15 15:41:43;;;;;;;4.30;2.97;;;;;;;;;;6302769;28;20987;-60
2023/05/15 15:44:43;;;;;;;5.20;2.30;;;;;;;;;;6296023;28;20044;-60
2023/05/15 15:47:44;;;;;;;6.00;1.40;;;;;;;;;;6300848;28;20052;-58
2023/05/15 15:50:45;;;;;;;6.05;1.27;;;;;;;;;;6301974;28;20047;-55
2023/05/15 15:53:46;;;;;;;3.97;1.50;;;;;;;;;;6294073;28;20446;-55
2023/05/15 15:56:46;;;;;;;4.55;1.10;;;;;;;;;;6299343;28;20304;-59
2023/05/15 15:59:48;;;;;;;3.13;1.20;;;;;;;;;;6297625;28;20548;-58
2023/05/15 16:02:48;;;;;;;3.63;1.43;;;;;;;;;;6301427;28;20044;-59
2023/05/15 16:05:50;;;;;;;4.53;1.10;;;;;;;;;;6301180;28;20154;-55
2023/05/15 16:08:50;;;;;;;2.17;0.93;;;;;;;;;;6293045;28;20052;-57
2023/05/15 16:11:51;;;;;;;3.93;1.27;;;;;;;;;;6297975;28;20046;-57
2023/05/15 16:14:53;;;;;;;2.47;1.20;;;;;;;;;;6297949;28;20052;-59
2023/05/15 16:17:55;;;;;;;3.45;1.25;;;;;;;;;;6297415;28;20484;-60
2023/05/15 16:20:56;;;;;;;3.55;1.27;;;;;;;;;;6292738;28;20135;-61
2023/05/15 16:23:56;;;;;;;2.77;1.30;;;;;;;;;;6298843;28;20235;-60
2023/05/15 16:26:57;;;;;;;4.10;1.60;;;;;;;;;;6298748;28;20056;-62
2023/05/15 16:29:58;;;;;;;4.68;1.40;;;;;;;;;;6296630;28;20056;-57
2023/05/15 16:32:59;;;;;;;3.60;1.40;;;;;;;;;;6298449;28;20066;-59
2023/05/15 16:36:00;;;;;;;3.33;1.60;;;;;;;;;;6294542;28;20658;-60
2023/05/15 16:39:00;;;;;;;3.67;1.60;;;;;;;;;;6289119;28;20052;-60
2023/05/15 16:42:01;;;;;;;4.70;2.10;;;;;;;;;;6300668;28;20780;-61
2023/05/15 16:45:03;;;;;;;4.70;1.63;;;;;;;;;;6293852;28;20486;-60
2023/05/15 16:48:04;;;;;;;;;;;;;;;;;;6302037;28;20513;-58
2023/05/15 16:51:05;;;;;;;3.28;1.80;;;;;;;;;;6292373;28;20020;-58
2023/05/15 16:54:06;;;;;;;4.72;2.00;;;;;;;;;;6294349;28;20044;-56
2023/05/15 16:57:06;;;;;;;11.63;6.88;;;;;;;;;;6302556;28;20075;-58
2023/05/15 17:00:07;;;;;;;6.35;3.42;;;;;;;;;;6291987;28;20474;-59
2023/05/15 17:03:08;;;;;;;13.90;6.68;;;;;;;;;;6295486;28;20052;-58
2023/05/15 17:06:09;;;;;;;17.42;10.90;;;;;;;;;;6296792;28;20525;-56
2023/05/15 17:09:09;;;;;;;7.22;4.60;;;;;;;;;;6292536;28;20066;-58
2023/05/15 17:12:10;;;;;;;4.65;2.97;;;;;;;;;;6293640;28;20050;-59
2023/05/15 17:15:11;;;;;;;4.60;3.33;;;;;;;;;;6293327;28;20423;-62
2023/05/15 17:18:12;;;;;;;5.57;2.90;;;;;;;;;;6298886;28;20167;-59
2023/05/15 17:21:13;;;;;;;5.40;2.13;;;;;;;;;;6293282;28;20051;-59
2023/05/15 17:24:14;;;;;;;7.30;3.97;;;;;;;;;;6294621;28;20388;-59
2023/05/15 17:27:17;;;;;;;5.72;2.90;;;;;;;;;;6292996;28;20070;-59
2023/05/15 17:30:17;;;;;;;7.25;4.68;;;;;;;;;;6289954;28;20055;-57
2023/05/15 17:33:18;;;;;;;15.40;12.73;;;;;;;;;;6292346;28;20036;-57
2023/05/15 17:36:18;;;;;;;25.98;22.95;;;;;;;;;;6291934;28;20513;-54
2023/05/15 17:39:19;;;;;;;25.47;9.87;;;;;;;;;;6294797;28;20051;-53
2023/05/15 17:42:20;;;;;;;9.30;5.07;;;;;;;;;;6292128;28;20044;-55
2023/05/15 17:45:21;;;;;;;8.10;3.92;;;;;;;;;;6296783;28;20825;-54
2023/05/15 17:48:21;;;;;;;18.50;9.80;;;;;;;;;;6294766;28;20059;-58
2023/05/15 17:51:22;;;;;;;10.18;5.53;;;;;;;;;;6290794;28;20093;-56
2023/05/15 17:54:23;;;;;;;26.60;11.65;;;;;;;;;;6293017;28;20055;-55
2023/05/15 17:57:23;;;;;;;44.75;23.90;;;;;;;;;;6294237;28;20057;-55
2023/05/15 18:00:24;;;;;;;29.77;15.80;;;;;;;;;;6290410;28;20044;-54